sensor_id;sensor_type;location;lat;lon;timestamp;P1;durP1;ratioP1;P2;durP2;ratioP2
40501;SDS011;29631;49.168;9.848;2023-05-15T00:00:10;5.32;;;3.72;;
40501;SDS011;29631;49.168;9.848;2023-05-15T00:02:37;4.18;;;3.88;;
40501;SDS011;29631;49.168;9.848;2023-05-15T00:05:04;3.92;;;3.72;;
40501;SDS011;29631;49.168;9.848;2023-05-15T00:07:32;5.85;;;4.15;;
40501;SDS011;29631;49.168;9.848;2023-05-15T00:10:00;4.57;;;4.28;;
40501;SDS011;29631;49.168;9.848;2023-05-15T00:12:26;4.30;;;4.00;;
40501;SDS011;29631;49.168;9.848;2023-05-15T00:14:52;3.75;;;3.55;;
40501;SDS011;29631;49.168;9.848;2023-05-15T00:17:18;3.88;;;3.67;;
40501;SDS011;29631;49.168;9.848;2023-05-15T00:19:44;4.35;;;4.05;;
40501;SDS011;29631;49.168;9.848;2023-05-15T00:22:10;4.05;;;3.85;;
40501;SDS011;29631;49.168;9.848;2023-05-15T00:24:35;4.55;;;4.25;;
40501;SDS011;29631;49.168;9.848;2023-05-15T00:27:01;4.07;;;3.60;;
40501;SDS011;29631;49.168;9.848;2023-05-15T00:29:28;4.13;;;3.85;;
40501;SDS011;29631;49.168;9.848;2023-05-15T00:31:54;4.32;;;4.03;;
40501;SDS011;29631;49.168;9.848;2023-05-15T00:34:20;4.35;;;4.05;;
40501;SDS011;29631;49.168;9.848;2023-05-15T00:36:46;4.00;;;3.80;;
40501;SDS011;29631;49.168;9.848;2023-05-15T00:39:12;4.03;;;3.83;;
40501;SDS011;29631;49.168;9.848;2023-05-15T00:41:39;3.60;;;3.40;;
40501;SDS011;29631;49.168;9.848;2023-05-15T00:44:05;4.57;;;4.20;;
40501;SDS011;29631;49.168;9.848;2023-05-15T00:46:33;3.85;;;3.63;;
40501;SDS011;29631;49.168;9.848;2023-05-15T00:49:00;5.38;;;3.92;;
40501;SDS011;29631;49.168;9.848;2023-05-15T00:51:29;4.40;;;4.10;;
40501;SDS011;29631;49.168;9.848;2023-05-15T00:53:55;4.65;;;4.25;;
40501;SDS011;29631;49.168;9.848;2023-05-15T00:56:23;4.30;;;4.00;;
40501;SDS011;29631;49.168;9.848;2023-05-15T00:58:50;4.32;;;4.03;;
40501;SDS011;29631;49.168;9.848;2023-05-15T01:01:17;4.47;;;4.22;;
40501;SDS011;29631;49.168;9.848;2023-05-15T01:03:44;4.03;;;3.83;;
40501;SDS011;29631;49.168;9.848;2023-05-15T01:06:10;3.53;;;3.33;;
40501;SDS011;29631;49.168;9.848;2023-05-15T01:08:37;4.18;;;3.88;;
40501;SDS011;29631;49.168;9.848;2023-05-15T01:11:10;4.22;;;3.67;;
40501;SDS011;29631;49.168;9.848;2023-05-15T01:13:40;3.83;;;3.63;;
40501;SDS011;29631;49.168;9.848;2023-05-15T01:16:06;4.32;;;4.10;;
40501;SDS011;29631;49.168;9.848;2023-05-15T01:18:33;4.43;;;4.13;;
40501;SDS011;29631;49.168;9.848;2023-05-15T01:21:05;4.00;;;3.70;;
40501;SDS011;29631;49.168;9.848;2023-05-15T01:32:42;3.90;;;3.70;;
40501;SDS011;29631;49.168;9.848;2023-05-15T01:38:01;4.20;;;3.88;;
40501;SDS011;29631;49.168;9.848;2023-05-15T01:44:29;3.80;;;3.60;;
40501;SDS011;29631;49.168;9.848;2023-05-15T01:47:03;4.25;;;3.95;;
40501;SDS011;29631;49.168;9.848;2023-05-15T01:49:34;4.10;;;3.90;;
40501;SDS011;29631;49.168;9.848;2023-05-15T01:52:12;3.88;;;3.58;;
40501;SDS011;29631;49.168;9.848;2023-05-15T01:55:01;3.63;;;3.33;;
40501;SDS011;29631;49.168;9.848;2023-05-15T01:57:28;3.80;;;3.60;;
40501;SDS011;29631;49.168;9.848;2023-05-15T01:59:55;4.00;;;3.80;;
40501;SDS011;29631;49.168;9.848;2023-05-15T02:02:23;4.57;;;3.65;;
40501;SDS011;29631;49.168;9.848;2023-05-15T02:04:52;4.13;;;3.85;;
40501;SDS011;29631;49.168;9.848;2023-05-15T02:07:18;3.63;;;3.40;;
40501;SDS011;29631;49.168;9.848;2023-05-15T02:09:44;3.58;;;3.38;;
40501;SDS011;29631;49.168;9.848;2023-05-15T02:12:11;3.90;;;3.70;;
40501;SDS011;29631;49.168;9.848;2023-05-15T02:14:39;4.30;;;4.10;;
40501;SDS011;29631;49.168;9.848;2023-05-15T02:17:05;4.90;;;4.50;;
40501;SDS011;29631;49.168;9.848;2023-05-15T02:19:31;4.40;;;4.10;;
40501;SDS011;29631;49.168;9.848;2023-05-15T02:21:57;4.28;;;3.92;;
40501;SDS011;29631;49.168;9.848;2023-05-15T02:24:23;4.13;;;3.90;;
40501;SDS011;29631;49.168;9.848;2023-05-15T02:35:59;3.55;;;3.35;;
40501;SDS011;29631;49.168;9.848;2023-05-15T02:38:34;3.85;;;3.60;;
40501;SDS011;29631;49.168;9.848;2023-05-15T02:41:13;3.92;;;3.70;;
40501;SDS011;29631;49.168;9.848;2023-05-15T02:43:41;3.97;;;3.70;;
40501;SDS011;29631;49.168;9.848;2023-05-15T02:46:07;4.25;;;4.05;;
40501;SDS011;29631;49.168;9.848;2023-05-15T02:48:34;3.90;;;3.70;;
40501;SDS011;29631;49.168;9.848;2023-05-15T02:51:04;4.20;;;3.92;;
40501;SDS011;29631;49.168;9.848;2023-05-15T02:53:31;4.57;;;4.28;;
40501;SDS011;29631;49.168;9.848;2023-05-15T02:55:57;4.15;;;3.85;;
40501;SDS011;29631;49.168;9.848;2023-05-15T02:58:23;4.05;;;3.83;;
40501;SDS011;29631;49.168;9.848;2023-05-15T03:00:49;4.10;;;3.90;;
40501;SDS011;29631;49.168;9.848;2023-05-15T03:03:15;3.88;;;3.60;;
40501;SDS011;29631;49.168;9.848;2023-05-15T03:05:40;4.20;;;3.90;;
40501;SDS011;29631;49.168;9.848;2023-05-15T03:08:06;3.65;;;3.45;;
40501;SDS011;29631;49.168;9.848;2023-05-15T03:10:32;3.90;;;3.70;;
40501;SDS011;29631;49.168;9.848;2023-05-15T03:12:57;3.30;;;3.10;;
40501;SDS011;29631;49.168;9.848;2023-05-15T03:15:23;4.15;;;3.85;;
40501;SDS011;29631;49.168;9.848;2023-05-15T03:17:49;3.58;;;3.38;;
40501;SDS011;29631;49.168;9.848;2023-05-15T03:20:15;3.78;;;3.58;;
40501;SDS011;29631;49.168;9.848;2023-05-15T03:22:41;3.70;;;3.50;;
40501;SDS011;29631;49.168;9.848;2023-05-15T03:25:08;3.50;;;3.30;;
40501;SDS011;29631;49.168;9.848;2023-05-15T03:27:35;3.25;;;3.15;;
40501;SDS011;29631;49.168;9.848;2023-05-15T03:30:02;3.97;;;3.78;;
40501;SDS011;29631;49.168;9.848;2023-05-15T03:32:29;3.95;;;3.75;;
40501;SDS011;29631;49.168;9.848;2023-05-15T03:34:55;5.22;;;3.83;;
40501;SDS011;29631;49.168;9.848;2023-05-15T03:37:20;3.90;;;3.70;;
40501;SDS011;29631;49.168;9.848;2023-05-15T03:39:46;4.10;;;3.90;;
40501;SDS011;29631;49.168;9.848;2023-05-15T03:42:12;4.15;;;3.83;;
40501;SDS011;29631;49.168;9.848;2023-05-15T03:44:38;3.92;;;3.70;;
40501;SDS011;29631;49.168;9.848;2023-05-15T03:47:03;3.97;;;3.78;;
40501;SDS011;29631;49.168;9.848;2023-05-15T03:49:29;4.30;;;4.00;;
40501;SDS011;29631;49.168;9.848;2023-05-15T03:51:55;3.70;;;3.40;;
40501;SDS011;29631;49.168;9.848;2023-05-15T03:54:21;4.10;;;3.80;;
40501;SDS011;29631;49.168;9.848;2023-05-15T03:56:47;3.85;;;3.55;;
40501;SDS011;29631;49.168;9.848;2023-05-15T03:59:13;3.42;;;3.20;;
40501;SDS011;29631;49.168;9.848;2023-05-15T04:01:39;4.10;;;3.90;;
40501;SDS011;29631;49.168;9.848;2023-05-15T04:04:04;3.28;;;3.08;;
40501;SDS011;29631;49.168;9.848;2023-05-15T04:06:30;3.80;;;3.47;;
40501;SDS011;29631;49.168;9.848;2023-05-15T04:08:56;3.65;;;3.45;;
40501;SDS011;29631;49.168;9.848;2023-05-15T04:11:21;4.28;;;3.97;;
40501;SDS011;29631;49.168;9.848;2023-05-15T04:13:47;4.00;;;3.80;;
40501;SDS011;29631;49.168;9.848;2023-05-15T04:16:13;3.92;;;3.72;;
40501;SDS011;29631;49.168;9.848;2023-05-15T04:18:39;3.72;;;3.53;;
40501;SDS011;29631;49.168;9.848;2023-05-15T04:21:05;3.92;;;3.63;;
40501;SDS011;29631;49.168;9.848;2023-05-15T04:23:31;3.85;;;3.65;;
40501;SDS011;29631;49.168;9.848;2023-05-15T04:25:56;4.20;;;3.90;;
40501;SDS011;29631;49.168;9.848;2023-05-15T04:28:22;3.65;;;3.45;;
40501;SDS011;29631;49.168;9.848;2023-05-15T04:30:48;3.78;;;3.58;;
40501;SDS011;29631;49.168;9.848;2023-05-15T04:33:13;4.05;;;3.85;;
40501;SDS011;29631;49.168;9.848;2023-05-15T04:35:39;3.60;;;3.40;;
40501;SDS011;29631;49.168;9.848;2023-05-15T04:38:05;3.70;;;3.50;;
40501;SDS011;29631;49.168;9.848;2023-05-15T04:40:31;3.50;;;3.20;;
40501;SDS011;29631;49.168;9.848;2023-05-15T04:42:56;3.38;;;3.17;;
40501;SDS011;29631;49.168;9.848;2023-05-15T04:45:22;3.60;;;3.40;;
40501;SDS011;29631;49.168;9.848;2023-05-15T04:47:48;4.20;;;4.00;;
40501;SDS011;29631;49.168;9.848;2023-05-15T04:50:14;3.38;;;3.17;;
40501;SDS011;29631;49.168;9.848;2023-05-15T04:52:40;3.75;;;3.55;;
40501;SDS011;29631;49.168;9.848;2023-05-15T04:55:07;3.08;;;2.97;;
40501;SDS011;29631;49.168;9.848;2023-05-15T04:57:33;3.67;;;3.47;;
40501;SDS011;29631;49.168;9.848;2023-05-15T04:59:59;4.03;;;3.72;;
40501;SDS011;29631;49.168;9.848;2023-05-15T05:02:26;3.90;;;3.70;;
40501;SDS011;29631;49.168;9.848;2023-05-15T05:04:51;3.38;;;3.17;;
40501;SDS011;29631;49.168;9.848;2023-05-15T05:07:17;3.75;;;3.55;;
40501;SDS011;29631;49.168;9.848;2023-05-15T05:09:43;3.08;;;2.97;;
40501;SDS011;29631;49.168;9.848;2023-05-15T05:12:09;3.53;;;3.22;;
40501;SDS011;29631;49.168;9.848;2023-05-15T05:14:35;3.35;;;3.15;;
40501;SDS011;29631;49.168;9.848;2023-05-15T05:17:01;3.33;;;3.08;;
40501;SDS011;29631;49.168;9.848;2023-05-15T05:19:27;3.55;;;3.35;;
40501;SDS011;29631;49.168;9.848;2023-05-15T05:21:54;3.33;;;3.13;;
40501;SDS011;29631;49.168;9.848;2023-05-15T05:24:19;3.45;;;3.25;;
40501;SDS011;29631;49.168;9.848;2023-05-15T05:26:45;3.50;;;3.30;;
40501;SDS011;29631;49.168;9.848;2023-05-15T05:29:12;3.47;;;3.28;;
40501;SDS011;29631;49.168;9.848;2023-05-15T05:31:37;3.80;;;3.50;;
40501;SDS011;29631;49.168;9.848;2023-05-15T05:34:03;3.38;;;3.17;;
40501;SDS011;29631;49.168;9.848;2023-05-15T05:36:29;3.50;;;3.30;;
40501;SDS011;29631;49.168;9.848;2023-05-15T05:38:55;3.72;;;3.53;;
40501;SDS011;29631;49.168;9.848;2023-05-15T05:41:20;3.70;;;3.45;;
40501;SDS011;29631;49.168;9.848;2023-05-15T05:43:46;3.20;;;3.10;;
40501;SDS011;29631;49.168;9.848;2023-05-15T05:46:12;3.53;;;3.33;;
40501;SDS011;29631;49.168;9.848;2023-05-15T05:48:38;3.42;;;3.20;;
40501;SDS011;29631;49.168;9.848;2023-05-15T05:51:03;3.10;;;2.97;;
40501;SDS011;29631;49.168;9.848;2023-05-15T05:53:29;3.53;;;3.25;;
40501;SDS011;29631;49.168;9.848;2023-05-15T05:55:55;3.33;;;3.13;;
40501;SDS011;29631;49.168;9.848;2023-05-15T05:58:21;3.45;;;3.25;;
40501;SDS011;29631;49.168;9.848;2023-05-15T06:00:47;2.90;;;2.80;;
40501;SDS011;29631;49.168;9.848;2023-05-15T06:03:12;3.58;;;3.38;;
40501;SDS011;29631;49.168;9.848;2023-05-15T06:05:38;3.65;;;3.35;;
40501;SDS011;29631;49.168;9.848;2023-05-15T06:08:04;3.78;;;3.58;;
40501;SDS011;29631;49.168;9.848;2023-05-15T06:10:30;3.50;;;3.30;;
40501;SDS011;29631;49.168;9.848;2023-05-15T06:12:56;3.30;;;3.10;;
40501;SDS011;29631;49.168;9.848;2023-05-15T06:15:22;2.83;;;2.72;;
40501;SDS011;29631;49.168;9.848;2023-05-15T06:17:48;3.30;;;3.10;;
40501;SDS011;29631;49.168;9.848;2023-05-15T06:20:13;3.40;;;3.20;;
40501;SDS011;29631;49.168;9.848;2023-05-15T06:22:40;3.40;;;3.20;;
40501;SDS011;29631;49.168;9.848;2023-05-15T06:25:06;3.13;;;2.92;;
40501;SDS011;29631;49.168;9.848;2023-05-15T06:27:32;3.90;;;3.60;;
40501;SDS011;29631;49.168;9.848;2023-05-15T06:29:59;3.60;;;3.40;;
40501;SDS011;29631;49.168;9.848;2023-05-15T06:32:25;3.70;;;3.40;;
40501;SDS011;29631;49.168;9.848;2023-05-15T06:34:52;3.35;;;3.15;;
40501;SDS011;29631;49.168;9.848;2023-05-15T06:37:18;3.58;;;3.38;;
40501;SDS011;29631;49.168;9.848;2023-05-15T06:39:44;3.50;;;3.30;;
40501;SDS011;29631;49.168;9.848;2023-05-15T06:42:09;4.20;;;3.90;;
40501;SDS011;29631;49.168;9.848;2023-05-15T06:44:35;3.85;;;3.58;;
40501;SDS011;29631;49.168;9.848;2023-05-15T06:47:01;3.63;;;3.33;;
40501;SDS011;29631;49.168;9.848;2023-05-15T06:49:27;3.55;;;3.35;;
40501;SDS011;29631;49.168;9.848;2023-05-15T06:51:52;3.70;;;3.50;;
40501;SDS011;29631;49.168;9.848;2023-05-15T06:54:19;3.80;;;3.60;;
40501;SDS011;29631;49.168;9.848;2023-05-15T06:56:45;3.40;;;3.22;;
40501;SDS011;29631;49.168;9.848;2023-05-15T06:59:11;3.40;;;3.20;;
40501;SDS011;29631;49.168;9.848;2023-05-15T07:01:37;3.65;;;3.17;;
40501;SDS011;29631;49.168;9.848;2023-05-15T07:04:03;3.20;;;3.00;;
40501;SDS011;29631;49.168;9.848;2023-05-15T07:06:28;3.30;;;3.10;;
40501;SDS011;29631;49.168;9.848;2023-05-15T07:08:56;3.28;;;2.88;;
40501;SDS011;29631;49.168;9.848;2023-05-15T07:11:23;2.78;;;2.67;;
40501;SDS011;29631;49.168;9.848;2023-05-15T07:13:49;2.55;;;2.45;;
40501;SDS011;29631;49.168;9.848;2023-05-15T07:16:16;3.00;;;2.72;;
40501;SDS011;29631;49.168;9.848;2023-05-15T07:18:42;2.90;;;2.70;;
40501;SDS011;29631;49.168;9.848;2023-05-15T07:21:07;3.10;;;2.90;;
40501;SDS011;29631;49.168;9.848;2023-05-15T07:23:33;3.20;;;2.95;;
40501;SDS011;29631;49.168;9.848;2023-05-15T07:25:59;3.00;;;2.90;;
40501;SDS011;29631;49.168;9.848;2023-05-15T07:28:24;2.95;;;2.75;;
40501;SDS011;29631;49.168;9.848;2023-05-15T07:30:51;2.83;;;2.63;;
40501;SDS011;29631;49.168;9.848;2023-05-15T07:33:16;3.08;;;2.97;;
40501;SDS011;29631;49.168;9.848;2023-05-15T07:35:42;2.88;;;2.78;;
40501;SDS011;29631;49.168;9.848;2023-05-15T07:38:08;2.80;;;2.70;;
40501;SDS011;29631;49.168;9.848;2023-05-15T07:40:34;2.88;;;2.63;;
40501;SDS011;29631;49.168;9.848;2023-05-15T07:42:59;2.78;;;2.67;;
40501;SDS011;29631;49.168;9.848;2023-05-15T07:45:25;2.78;;;2.67;;
40501;SDS011;29631;49.168;9.848;2023-05-15T07:47:51;2.72;;;2.63;;
40501;SDS011;29631;49.168;9.848;2023-05-15T07:50:17;4.13;;;2.58;;
40501;SDS011;29631;49.168;9.848;2023-05-15T07:52:42;2.60;;;2.50;;
40501;SDS011;29631;49.168;9.848;2023-05-15T07:55:09;3.00;;;2.80;;
40501;SDS011;29631;49.168;9.848;2023-05-15T07:57:35;2.63;;;2.53;;
40501;SDS011;29631;49.168;9.848;2023-05-15T08:00:01;2.92;;;2.72;;
40501;SDS011;29631;49.168;9.848;2023-05-15T08:02:34;2.60;;;2.50;;
40501;SDS011;29631;49.168;9.848;2023-05-15T08:05:00;2.75;;;2.65;;
40501;SDS011;29631;49.168;9.848;2023-05-15T08:07:26;3.40;;;3.05;;
40501;SDS011;29631;49.168;9.848;2023-05-15T08:09:55;3.40;;;3.20;;
40501;SDS011;29631;49.168;9.848;2023-05-15T08:12:21;3.33;;;3.22;;
40501;SDS011;29631;49.168;9.848;2023-05-15T08:14:51;3.33;;;3.13;;
40501;SDS011;29631;49.168;9.848;2023-05-15T08:17:19;3.63;;;3.42;;
40501;SDS011;29631;49.168;9.848;2023-05-15T08:19:46;3.85;;;3.65;;
40501;SDS011;29631;49.168;9.848;2023-05-15T08:22:12;3.83;;;3.50;;
40501;SDS011;29631;49.168;9.848;2023-05-15T08:24:38;3.90;;;3.70;;
40501;SDS011;29631;49.168;9.848;2023-05-15T08:27:05;4.00;;;3.70;;
40501;SDS011;29631;49.168;9.848;2023-05-15T08:29:32;4.15;;;3.78;;
40501;SDS011;29631;49.168;9.848;2023-05-15T08:31:58;3.63;;;3.42;;
40501;SDS011;29631;49.168;9.848;2023-05-15T08:34:25;3.45;;;3.25;;
40501;SDS011;29631;49.168;9.848;2023-05-15T08:36:51;3.67;;;3.47;;
40501;SDS011;29631;49.168;9.848;2023-05-15T08:39:17;3.78;;;3.58;;
40501;SDS011;29631;49.168;9.848;2023-05-15T08:41:55;3.60;;;3.38;;
40501;SDS011;29631;49.168;9.848;2023-05-15T08:44:43;3.22;;;3.10;;
40501;SDS011;29631;49.168;9.848;2023-05-15T08:47:09;4.03;;;3.83;;
40501;SDS011;29631;49.168;9.848;2023-05-15T08:52:28;3.67;;;3.47;;
40501;SDS011;29631;49.168;9.848;2023-05-15T08:54:55;3.95;;;3.75;;
40501;SDS011;29631;49.168;9.848;2023-05-15T08:57:23;3.63;;;3.42;;
40501;SDS011;29631;49.168;9.848;2023-05-15T08:59:50;3.92;;;3.72;;
40501;SDS011;29631;49.168;9.848;2023-05-15T09:02:18;3.40;;;3.20;;
40501;SDS011;29631;49.168;9.848;2023-05-15T09:04:44;3.50;;;3.30;;
40501;SDS011;29631;49.168;9.848;2023-05-15T09:07:10;4.38;;;4.07;;
40501;SDS011;29631;49.168;9.848;2023-05-15T09:09:36;3.83;;;3.58;;
40501;SDS011;29631;49.168;9.848;2023-05-15T09:12:04;3.75;;;3.50;;
40501;SDS011;29631;49.168;9.848;2023-05-15T09:14:34;3.90;;;3.35;;
40501;SDS011;29631;49.168;9.848;2023-05-15T09:17:00;4.05;;;3.75;;
40501;SDS011;29631;49.168;9.848;2023-05-15T09:19:26;4.10;;;3.90;;
40501;SDS011;29631;49.168;9.848;2023-05-15T09:21:52;3.60;;;3.40;;
40501;SDS011;29631;49.168;9.848;2023-05-15T09:27:07;3.40;;;3.20;;
40501;SDS011;29631;49.168;9.848;2023-05-15T09:29:34;3.42;;;3.22;;
40501;SDS011;29631;49.168;9.848;2023-05-15T09:32:05;3.38;;;3.17;;
40501;SDS011;29631;49.168;9.848;2023-05-15T09:34:34;3.65;;;3.45;;
40501;SDS011;29631;49.168;9.848;2023-05-15T09:37:06;3.70;;;3.50;;
40501;SDS011;29631;49.168;9.848;2023-05-15T09:39:43;3.80;;;3.58;;
40501;SDS011;29631;49.168;9.848;2023-05-15T09:42:10;3.75;;;3.45;;
40501;SDS011;29631;49.168;9.848;2023-05-15T09:44:44;3.20;;;3.00;;
40501;SDS011;29631;49.168;9.848;2023-05-15T09:47:13;3.20;;;3.00;;
40501;SDS011;29631;49.168;9.848;2023-05-15T09:49:44;3.47;;;3.28;;
40501;SDS011;29631;49.168;9.848;2023-05-15T09:52:11;3.67;;;3.35;;
40501;SDS011;29631;49.168;9.848;2023-05-15T09:54:39;3.47;;;2.92;;
40501;SDS011;29631;49.168;9.848;2023-05-15T09:57:12;2.97;;;2.80;;
40501;SDS011;29631;49.168;9.848;2023-05-15T09:59:42;3.00;;;2.90;;
40501;SDS011;29631;49.168;9.848;2023-05-15T10:02:12;3.20;;;3.10;;
40501;SDS011;29631;49.168;9.848;2023-05-15T10:04:58;3.13;;;2.92;;
40501;SDS011;29631;49.168;9.848;2023-05-15T10:07:28;3.33;;;3.13;;
40501;SDS011;29631;49.168;9.848;2023-05-15T10:09:56;3.20;;;3.00;;
40501;SDS011;29631;49.168;9.848;2023-05-15T10:12:22;3.65;;;3.45;;
40501;SDS011;29631;49.168;9.848;2023-05-15T10:14:49;3.08;;;2.88;;
40501;SDS011;29631;49.168;9.848;2023-05-15T10:17:18;3.45;;;3.25;;
40501;SDS011;29631;49.168;9.848;2023-05-15T10:19:44;3.03;;;2.85;;
40501;SDS011;29631;49.168;9.848;2023-05-15T10:22:14;3.03;;;2.92;;
40501;SDS011;29631;49.168;9.848;2023-05-15T10:24:44;3.28;;;2.72;;
40501;SDS011;29631;49.168;9.848;2023-05-15T10:27:13;2.63;;;2.53;;
40501;SDS011;29631;49.168;9.848;2023-05-15T10:29:40;2.92;;;2.72;;
40501;SDS011;29631;49.168;9.848;2023-05-15T10:32:06;3.30;;;2.78;;
40501;SDS011;29631;49.168;9.848;2023-05-15T10:34:32;2.80;;;2.67;;
40501;SDS011;29631;49.168;9.848;2023-05-15T10:36:58;3.20;;;3.00;;
40501;SDS011;29631;49.168;9.848;2023-05-15T10:39:25;3.10;;;2.90;;
40501;SDS011;29631;49.168;9.848;2023-05-15T10:41:52;3.25;;;3.05;;
40501;SDS011;29631;49.168;9.848;2023-05-15T10:44:20;3.05;;;2.85;;
40501;SDS011;29631;49.168;9.848;2023-05-15T10:46:47;3.28;;;3.10;;
40501;SDS011;29631;49.168;9.848;2023-05-15T10:49:13;2.67;;;2.58;;
40501;SDS011;29631;49.168;9.848;2023-05-15T10:51:39;2.85;;;2.72;;
40501;SDS011;29631;49.168;9.848;2023-05-15T10:54:07;4.28;;;2.83;;
40501;SDS011;29631;49.168;9.848;2023-05-15T10:56:33;3.75;;;3.45;;
40501;SDS011;29631;49.168;9.848;2023-05-15T10:59:06;3.30;;;3.00;;
40501;SDS011;29631;49.168;9.848;2023-05-15T11:01:35;3.28;;;2.78;;
40501;SDS011;29631;49.168;9.848;2023-05-15T11:04:06;3.58;;;3.28;;
40501;SDS011;29631;49.168;9.848;2023-05-15T11:06:32;3.08;;;2.67;;
40501;SDS011;29631;49.168;9.848;2023-05-15T11:14:15;3.50;;;3.30;;
40501;SDS011;29631;49.168;9.848;2023-05-15T11:30:10;2.75;;;2.65;;
40501;SDS011;29631;49.168;9.848;2023-05-15T11:35:09;2.88;;;2.65;;
40501;SDS011;29631;49.168;9.848;2023-05-15T11:37:57;2.75;;;2.65;;
40501;SDS011;29631;49.168;9.848;2023-05-15T11:40:54;6.32;;;3.00;;
40501;SDS011;29631;49.168;9.848;2023-05-15T11:43:25;3.45;;;3.25;;
40501;SDS011;29631;49.168;9.848;2023-05-15T11:48:33;3.53;;;3.33;;
40501;SDS011;29631;49.168;9.848;2023-05-15T11:53:50;3.30;;;3.10;;
40501;SDS011;29631;49.168;9.848;2023-05-15T11:56:24;3.88;;;3.67;;
40501;SDS011;29631;49.168;9.848;2023-05-15T11:58:55;3.38;;;3.13;;
40501;SDS011;29631;49.168;9.848;2023-05-15T12:01:23;3.35;;;3.05;;
40501;SDS011;29631;49.168;9.848;2023-05-15T12:03:50;3.40;;;3.20;;
40501;SDS011;29631;49.168;9.848;2023-05-15T12:06:16;3.63;;;3.20;;
40501;SDS011;29631;49.168;9.848;2023-05-15T12:08:42;3.78;;;3.13;;
40501;SDS011;29631;49.168;9.848;2023-05-15T12:11:09;2.92;;;2.72;;
40501;SDS011;29631;49.168;9.848;2023-05-15T12:13:36;4.07;;;2.90;;
40501;SDS011;29631;49.168;9.848;2023-05-15T12:16:02;3.15;;;2.95;;
40501;SDS011;29631;49.168;9.848;2023-05-15T12:18:32;4.05;;;2.75;;
40501;SDS011;29631;49.168;9.848;2023-05-15T12:20:58;3.25;;;2.83;;
40501;SDS011;29631;49.168;9.848;2023-05-15T12:23:24;3.22;;;2.97;;
40501;SDS011;29631;49.168;9.848;2023-05-15T12:25:54;2.97;;;2.70;;
40501;SDS011;29631;49.168;9.848;2023-05-15T12:28:25;3.30;;;2.65;;
40501;SDS011;29631;49.168;9.848;2023-05-15T12:30:51;3.00;;;2.80;;
40501;SDS011;29631;49.168;9.848;2023-05-15T12:33:18;2.60;;;2.40;;
40501;SDS011;29631;49.168;9.848;2023-05-15T12:35:48;2.55;;;2.45;;
40501;SDS011;29631;49.168;9.848;2023-05-15T12:38:19;2.92;;;2.72;;
40501;SDS011;29631;49.168;9.848;2023-05-15T12:40:49;2.60;;;2.50;;
40501;SDS011;29631;49.168;9.848;2023-05-15T12:43:17;2.70;;;2.60;;
40501;SDS011;29631;49.168;9.848;2023-05-15T12:45:43;5.13;;;2.60;;
40501;SDS011;29631;49.168;9.848;2023-05-15T12:48:15;2.85;;;2.65;;
40501;SDS011;29631;49.168;9.848;2023-05-15T12:50:42;4.05;;;2.53;;
40501;SDS011;29631;49.168;9.848;2023-05-15T12:53:11;2.78;;;2.58;;
40501;SDS011;29631;49.168;9.848;2023-05-15T12:55:40;2.72;;;2.45;;
40501;SDS011;29631;49.168;9.848;2023-05-15T12:58:09;2.80;;;2.70;;
40501;SDS011;29631;49.168;9.848;2023-05-15T13:00:38;2.55;;;2.45;;
40501;SDS011;29631;49.168;9.848;2023-05-15T13:03:09;3.17;;;2.60;;
40501;SDS011;29631;49.168;9.848;2023-05-15T13:05:38;2.65;;;2.47;;
40501;SDS011;29631;49.168;9.848;2023-05-15T13:08:08;2.50;;;2.30;;
40501;SDS011;29631;49.168;9.848;2023-05-15T13:10:38;2.45;;;2.33;;
40501;SDS011;29631;49.168;9.848;2023-05-15T13:13:04;2.60;;;2.50;;
40501;SDS011;29631;49.168;9.848;2023-05-15T13:15:39;2.83;;;2.53;;
40501;SDS011;29631;49.168;9.848;2023-05-15T13:18:09;2.45;;;2.35;;
40501;SDS011;29631;49.168;9.848;2023-05-15T13:20:37;2.72;;;2.50;;
40501;SDS011;29631;49.168;9.848;2023-05-15T13:23:15;2.58;;;2.47;;
40501;SDS011;29631;49.168;9.848;2023-05-15T13:25:43;2.80;;;2.70;;
40501;SDS011;29631;49.168;9.848;2023-05-15T13:28:09;2.83;;;2.65;;
40501;SDS011;29631;49.168;9.848;2023-05-15T13:30:36;2.78;;;2.60;;
40501;SDS011;29631;49.168;9.848;2023-05-15T13:33:05;3.17;;;2.97;;
40501;SDS011;29631;49.168;9.848;2023-05-15T13:35:32;2.97;;;2.78;;
40501;SDS011;29631;49.168;9.848;2023-05-15T13:37:59;4.28;;;3.78;;
40501;SDS011;29631;49.168;9.848;2023-05-15T13:40:25;71.28;;;44.92;;
40501;SDS011;29631;49.168;9.848;2023-05-15T13:42:51;109.93;;;72.15;;
40501;SDS011;29631;49.168;9.848;2023-05-15T13:45:17;57.88;;;41.90;;
40501;SDS011;29631;49.168;9.848;2023-05-15T13:47:43;25.67;;;17.73;;
40501;SDS011;29631;49.168;9.848;2023-05-15T13:50:12;8.75;;;7.85;;
40501;SDS011;29631;49.168;9.848;2023-05-15T13:52:40;5.10;;;4.60;;
40501;SDS011;29631;49.168;9.848;2023-05-15T13:55:08;5.35;;;3.92;;
40501;SDS011;29631;49.168;9.848;2023-05-15T13:57:38;2.80;;;2.70;;
40501;SDS011;29631;49.168;9.848;2023-05-15T14:00:05;3.85;;;3.38;;
40501;SDS011;29631;49.168;9.848;2023-05-15T14:02:36;3.25;;;3.00;;
40501;SDS011;29631;49.168;9.848;2023-05-15T14:05:01;4.57;;;2.88;;
40501;SDS011;29631;49.168;9.848;2023-05-15T14:07:28;2.92;;;2.72;;
40501;SDS011;29631;49.168;9.848;2023-05-15T14:09:54;2.75;;;2.55;;
40501;SDS011;29631;49.168;9.848;2023-05-15T14:12:20;2.83;;;2.72;;
40501;SDS011;29631;49.168;9.848;2023-05-15T14:14:46;2.67;;;2.47;;
40501;SDS011;29631;49.168;9.848;2023-05-15T14:17:13;2.88;;;2.67;;
40501;SDS011;29631;49.168;9.848;2023-05-15T14:19:39;2.78;;;2.67;;
40501;SDS011;29631;49.168;9.848;2023-05-15T14:22:05;3.00;;;2.85;;
40501;SDS011;29631;49.168;9.848;2023-05-15T14:24:31;3.38;;;2.90;;
40501;SDS011;29631;49.168;9.848;2023-05-15T14:26:56;2.78;;;2.67;;
40501;SDS011;29631;49.168;9.848;2023-05-15T14:29:22;2.83;;;2.72;;
40501;SDS011;29631;49.168;9.848;2023-05-15T14:31:48;4.30;;;3.20;;
40501;SDS011;29631;49.168;9.848;2023-05-15T14:34:14;4.38;;;2.90;;
40501;SDS011;29631;49.168;9.848;2023-05-15T14:36:41;3.22;;;2.92;;
40501;SDS011;29631;49.168;9.848;2023-05-15T14:39:07;3.25;;;3.05;;
40501;SDS011;29631;49.168;9.848;2023-05-15T14:41:33;3.03;;;2.83;;
40501;SDS011;29631;49.168;9.848;2023-05-15T14:43:58;3.28;;;3.08;;
40501;SDS011;29631;49.168;9.848;2023-05-15T14:46:24;3.03;;;2.92;;
40501;SDS011;29631;49.168;9.848;2023-05-15T14:48:50;2.60;;;2.50;;
40501;SDS011;29631;49.168;9.848;2023-05-15T14:51:16;2.58;;;2.47;;
40501;SDS011;29631;49.168;9.848;2023-05-15T14:53:41;2.63;;;2.53;;
40501;SDS011;29631;49.168;9.848;2023-05-15T14:56:08;2.55;;;2.45;;
40501;SDS011;29631;49.168;9.848;2023-05-15T14:58:34;2.65;;;2.55;;
40501;SDS011;29631;49.168;9.848;2023-05-15T15:00:59;2.70;;;2.60;;
40501;SDS011;29631;49.168;9.848;2023-05-15T15:03:26;2.70;;;2.60;;
40501;SDS011;29631;49.168;9.848;2023-05-15T15:05:51;2.22;;;2.20;;
40501;SDS011;29631;49.168;9.848;2023-05-15T15:08:17;2.83;;;2.50;;
40501;SDS011;29631;49.168;9.848;2023-05-15T15:10:43;2.30;;;2.20;;
40501;SDS011;29631;49.168;9.848;2023-05-15T15:13:09;2.65;;;2.55;;
40501;SDS011;29631;49.168;9.848;2023-05-15T15:15:36;2.75;;;2.55;;
40501;SDS011;29631;49.168;9.848;2023-05-15T15:18:02;2.55;;;2.45;;
40501;SDS011;29631;49.168;9.848;2023-05-15T15:20:28;2.65;;;2.45;;
40501;SDS011;29631;49.168;9.848;2023-05-15T15:22:54;2.83;;;2.60;;
40501;SDS011;29631;49.168;9.848;2023-05-15T15:25:20;2.83;;;2.63;;
40501;SDS011;29631;49.168;9.848;2023-05-15T15:27:46;2.88;;;2.75;;
40501;SDS011;29631;49.168;9.848;2023-05-15T15:30:13;3.28;;;2.92;;
40501;SDS011;29631;49.168;9.848;2023-05-15T15:32:40;3.13;;;2.88;;
40501;SDS011;29631;49.168;9.848;2023-05-15T15:35:07;3.10;;;2.90;;
40501;SDS011;29631;49.168;9.848;2023-05-15T15:37:33;3.05;;;2.92;;
40501;SDS011;29631;49.168;9.848;2023-05-15T15:40:01;3.35;;;2.80;;
40501;SDS011;29631;49.168;9.848;2023-05-15T15:42:29;3.30;;;2.80;;
40501;SDS011;29631;49.168;9.848;2023-05-15T15:44:56;3.45;;;3.05;;